createdAt,value
2022-12-18T00:01:16.784Z,-4.20
2022-12-18T00:03:44.999Z,-4.30
2022-12-18T00:06:15.533Z,-4.30
2022-12-18T00:08:42.973Z,-4.30
2022-12-18T00:11:14.694Z,-4.20
2022-12-18T00:13:42.294Z,-4.20
2022-12-18T00:16:11.734Z,-4.20
2022-12-18T00:18:39.478Z,-4.20
2022-12-18T00:21:10.078Z,-4.20
2022-12-18T00:23:41.375Z,-4.20
2022-12-18T00:26:13.496Z,-4.20
2022-12-18T00:28:44.107Z,-4.20
2022-12-18T00:31:13.260Z,-4.20
2022-12-18T00:33:41.224Z,-4.10
2022-12-18T00:36:12.325Z,-4.30
2022-12-18T00:38:39.700Z,-4.30
2022-12-18T00:41:09.725Z,-4.30
2022-12-18T00:43:39.472Z,-4.50
2022-12-18T00:46:07.542Z,-4.40
2022-12-18T00:48:34.903Z,-4.40
2022-12-18T00:51:02.189Z,-4.40
2022-12-18T00:53:29.466Z,-4.40
2022-12-18T00:55:57.222Z,-4.50
2022-12-18T00:58:24.498Z,-4.50
2022-12-18T01:00:53.498Z,-4.50
2022-12-18T01:03:20.794Z,-4.50
2022-12-18T01:05:48.033Z,-4.50
2022-12-18T01:08:15.392Z,-4.60
2022-12-18T01:10:44.532Z,-4.80
2022-12-18T01:13:12.324Z,-5.00
2022-12-18T01:15:39.822Z,-5.20
2022-12-18T01:18:08.479Z,-5.20
2022-12-18T01:20:35.751Z,-5.00
2022-12-18T01:23:03.022Z,-4.90
2022-12-18T01:25:30.291Z,-4.90
2022-12-18T01:27:57.956Z,-4.90
2022-12-18T01:30:25.921Z,-5.00
2022-12-18T01:32:53.998Z,-5.00
2022-12-18T01:35:22.537Z,-5.00
2022-12-18T01:37:49.781Z,-5.00
2022-12-18T01:40:17.089Z,-4.90
2022-12-18T01:42:44.327Z,-4.90
2022-12-18T01:45:28.206Z,-5.00
2022-12-18T01:47:57.442Z,-5.00
2022-12-18T01:50:31.385Z,-4.90
2022-12-18T01:53:03.550Z,-5.00
2022-12-18T01:55:36.001Z,-5.20
2022-12-18T01:58:04.385Z,-5.20
2022-12-18T02:00:31.736Z,-5.20
2022-12-18T02:02:59.347Z,-5.10
2022-12-18T02:05:51.088Z,-5.10
2022-12-18T02:08:25.127Z,-5.10
2022-12-18T02:11:02.467Z,-5.10
2022-12-18T02:13:42.076Z,-5.10
2022-12-18T02:16:17.711Z,-5.20
2022-12-18T02:18:49.193Z,-5.20
2022-12-18T02:21:30.892Z,-5.10
2022-12-18T02:24:08.416Z,-5.10
2022-12-18T02:26:42.970Z,-5.10
2022-12-18T02:29:14.910Z,-5.00
2022-12-18T02:31:53.545Z,-5.10
2022-12-18T02:34:24.920Z,-5.30
2022-12-18T02:36:54.723Z,-5.20
2022-12-18T02:39:24.681Z,-5.10
2022-12-18T02:42:08.609Z,-5.10
2022-12-18T02:44:42.423Z,-5.20
2022-12-18T02:47:12.333Z,-5.30
2022-12-18T02:49:50.231Z,-5.30
2022-12-18T02:52:26.650Z,-5.20
2022-12-18T02:55:06.327Z,-5.20
2022-12-18T02:57:41.676Z,-5.20
2022-12-18T03:00:13.422Z,-5.20
2022-12-18T03:02:47.373Z,-5.20
2022-12-18T03:05:18.166Z,-5.20
2022-12-18T03:07:52.865Z,-5.20
2022-12-18T03:10:25.944Z,-5.30
2022-12-18T03:13:00.024Z,-5.20
2022-12-18T03:15:31.435Z,-5.20
2022-12-18T03:18:11.297Z,-5.10
2022-12-18T03:20:43.503Z,-5.10
2022-12-18T03:23:18.644Z,-5.10
2022-12-18T03:25:53.723Z,-5.10
2022-12-18T03:28:24.663Z,-5.10
2022-12-18T03:31:01.636Z,-5.20
2022-12-18T03:33:36.553Z,-5.30
2022-12-18T03:36:04.817Z,-5.40
2022-12-18T03:38:33.570Z,-5.40
2022-12-18T03:41:08.673Z,-5.40
2022-12-18T03:43:51.605Z,-5.30
2022-12-18T03:46:27.716Z,-5.40
2022-12-18T03:49:01.320Z,-5.40
2022-12-18T03:51:38.397Z,-5.40
2022-12-18T03:54:09.237Z,-5.40
2022-12-18T03:56:45.740Z,-5.50
2022-12-18T03:59:16.214Z,-5.50
2022-12-18T04:01:48.532Z,-5.50
2022-12-18T04:04:19.066Z,-5.50
2022-12-18T04:06:48.892Z,-5.50
2022-12-18T04:09:19.105Z,-5.50
2022-12-18T04:11:48.582Z,-5.50
2022-12-18T04:14:18.741Z,-5.50
2022-12-18T04:16:49.767Z,-5.40
2022-12-18T04:19:19.688Z,-5.40
2022-12-18T04:21:49.871Z,-5.40
2022-12-18T04:24:18.465Z,-5.40
2022-12-18T04:27:05.663Z,-5.50
2022-12-18T04:29:41.244Z,-5.50
2022-12-18T04:32:09.630Z,-5.50
2022-12-18T04:34:38.126Z,-5.50
2022-12-18T04:37:06.498Z,-5.60
2022-12-18T04:39:33.958Z,-5.60
2022-12-18T04:42:07.034Z,-5.60
2022-12-18T04:44:35.253Z,-5.70
2022-12-18T04:47:04.269Z,-5.70
2022-12-18T04:49:31.527Z,-5.60
2022-12-18T04:51:58.805Z,-5.60
2022-12-18T04:54:26.466Z,-5.60
2022-12-18T04:56:53.738Z,-5.70
2022-12-18T04:59:21.962Z,-5.60
2022-12-18T05:01:49.368Z,-5.60
2022-12-18T05:04:18.214Z,-5.60
2022-12-18T05:06:45.705Z,-5.50
2022-12-18T05:09:13.079Z,-5.50
2022-12-18T05:11:40.328Z,-5.50
2022-12-18T05:14:07.566Z,-5.50
2022-12-18T05:16:35.005Z,-5.50
2022-12-18T05:19:02.271Z,-5.50
2022-12-18T05:21:30.847Z,-5.50
2022-12-18T05:23:58.151Z,-5.50
2022-12-18T05:26:25.406Z,-5.50
2022-12-18T05:28:52.668Z,-5.60
2022-12-18T05:31:19.996Z,-5.50
2022-12-18T05:33:47.340Z,-5.50
2022-12-18T05:36:17.461Z,-5.40
2022-12-18T05:38:46.233Z,-5.40
2022-12-18T05:41:13.469Z,-5.40
2022-12-18T05:43:41.881Z,-5.60
2022-12-18T05:46:13.112Z,-5.70
2022-12-18T05:48:40.473Z,-5.70
2022-12-18T05:51:10.222Z,-5.70
2022-12-18T05:53:38.727Z,-5.60
2022-12-18T05:56:11.380Z,-5.50
2022-12-18T05:58:38.857Z,-5.40
2022-12-18T06:01:11.297Z,-5.40
2022-12-18T06:03:38.799Z,-5.30
2022-12-18T06:06:13.962Z,-5.30
2022-12-18T06:08:45.994Z,-5.50
2022-12-18T06:11:18.374Z,-5.50
2022-12-18T06:13:45.697Z,-5.40
2022-12-18T06:16:13.012Z,-5.30
2022-12-18T06:18:40.441Z,-5.30
2022-12-18T06:21:07.803Z,-5.30
2022-12-18T06:23:35.512Z,-5.30
2022-12-18T06:26:06.161Z,-5.40
2022-12-18T06:28:34.754Z,-5.30
2022-12-18T06:31:04.089Z,-5.30
2022-12-18T06:33:31.420Z,-5.40
2022-12-18T06:36:01.767Z,-5.50
2022-12-18T06:38:29.239Z,-5.40
2022-12-18T06:40:56.570Z,-5.40
2022-12-18T06:43:23.873Z,-5.40
2022-12-18T06:45:53.912Z,-5.40
2022-12-18T06:48:21.242Z,-5.40
2022-12-18T06:50:48.791Z,-5.40
2022-12-18T06:53:16.078Z,-5.40
2022-12-18T06:55:43.757Z,-5.40
2022-12-18T06:58:11.067Z,-5.40
2022-12-18T07:00:38.922Z,-5.50
2022-12-18T07:03:07.662Z,-5.60
2022-12-18T07:05:35.035Z,-5.60
2022-12-18T07:08:02.287Z,-5.50
2022-12-18T07:10:29.527Z,-5.50
2022-12-18T07:12:57.253Z,-5.50
2022-12-18T07:15:24.499Z,-5.40
2022-12-18T07:17:51.840Z,-5.40
2022-12-18T07:20:20.394Z,-5.50
2022-12-18T07:22:51.981Z,-5.50
2022-12-18T07:25:21.985Z,-5.50
2022-12-18T07:27:49.281Z,-5.50
2022-12-18T07:30:16.539Z,-5.50
2022-12-18T07:32:43.898Z,-5.50
2022-12-18T07:35:11.500Z,-5.50
2022-12-18T07:37:40.090Z,-5.40
2022-12-18T07:40:08.986Z,-5.40
2022-12-18T07:42:37.013Z,-5.40
2022-12-18T07:45:05.129Z,-5.40
2022-12-18T07:47:34.682Z,-5.40
2022-12-18T07:50:02.019Z,-5.40
2022-12-18T07:52:29.288Z,-5.40
2022-12-18T07:54:57.894Z,-5.40
2022-12-18T07:57:49.605Z,-5.40
2022-12-18T08:00:13.738Z,-5.30
2022-12-18T08:02:41.099Z,-5.30
2022-12-18T08:05:09.982Z,-5.30
2022-12-18T08:07:37.208Z,-5.30
2022-12-18T08:10:07.240Z,-5.30
2022-12-18T08:12:34.493Z,-5.40
2022-12-18T08:15:02.582Z,-5.40
2022-12-18T08:17:30.028Z,-5.40
2022-12-18T08:19:57.356Z,-5.40
2022-12-18T08:22:24.751Z,-5.30
2022-12-18T08:24:52.068Z,-5.30
2022-12-18T08:27:29.474Z,-5.20
2022-12-18T08:29:57.720Z,-5.20
2022-12-18T08:32:25.160Z,-5.20
2022-12-18T08:34:52.498Z,-5.20
2022-12-18T08:37:19.799Z,-5.20
2022-12-18T08:39:47.074Z,-5.20
2022-12-18T08:42:33.076Z,-5.30
2022-12-18T08:45:05.412Z,-5.30
2022-12-18T08:47:32.741Z,-5.30
2022-12-18T08:50:00.069Z,-5.30
2022-12-18T08:52:27.452Z,-5.30
2022-12-18T08:54:54.707Z,-5.20
2022-12-18T08:57:22.028Z,-5.10
2022-12-18T08:59:49.297Z,-5.10
2022-12-18T09:02:18.340Z,-5.10
2022-12-18T09:04:52.381Z,-5.10
2022-12-18T09:07:22.786Z,-5.20
2022-12-18T09:09:50.068Z,-5.10
2022-12-18T09:12:17.337Z,-5.20
2022-12-18T09:14:44.705Z,-5.20
2022-12-18T09:17:12.221Z,-5.20
2022-12-18T09:19:40.889Z,-5.10
2022-12-18T09:22:08.226Z,-5.00
2022-12-18T09:24:35.713Z,-5.00
2022-12-18T09:27:03.028Z,-4.90
2022-12-18T09:29:30.302Z,-4.90
2022-12-18T09:31:57.580Z,-4.80
2022-12-18T09:34:25.043Z,-4.80
2022-12-18T09:36:53.646Z,-4.90
2022-12-18T09:39:22.233Z,-4.80
2022-12-18T09:41:54.589Z,-4.70
2022-12-18T09:44:25.801Z,-4.70
2022-12-18T09:47:02.208Z,-4.70
2022-12-18T09:49:33.400Z,-4.70
2022-12-18T09:52:05.852Z,-4.60
2022-12-18T09:54:37.864Z,-4.70
2022-12-18T09:57:05.654Z,-4.70
2022-12-18T09:59:38.862Z,-4.60
2022-12-18T10:02:17.036Z,-4.50
2022-12-18T10:04:48.542Z,-4.50
2022-12-18T10:07:23.700Z,-4.50
2022-12-18T10:10:01.958Z,-4.50
2022-12-18T10:12:38.112Z,-4.50
2022-12-18T10:15:11.792Z,-4.50
2022-12-18T10:17:46.501Z,-4.40
2022-12-18T10:20:18.429Z,-4.40
2022-12-18T10:22:54.497Z,-4.30
2022-12-18T10:25:25.928Z,-4.20
2022-12-18T10:27:56.955Z,-4.30
2022-12-18T10:30:25.666Z,-4.30
2022-12-18T10:32:53.525Z,-4.30
2022-12-18T10:35:23.337Z,-4.20
2022-12-18T10:38:07.202Z,-4.20
2022-12-18T10:40:49.612Z,-4.10
2022-12-18T10:43:21.236Z,-4.00
2022-12-18T10:46:01.556Z,-3.90
2022-12-18T10:48:30.914Z,-3.90
2022-12-18T10:51:10.881Z,-3.80
2022-12-18T10:53:43.794Z,-3.80
2022-12-18T10:56:11.586Z,-3.80
2022-12-18T10:58:40.927Z,-3.70
2022-12-18T11:01:12.118Z,-3.70
2022-12-18T11:03:41.409Z,-3.70
2022-12-18T11:06:11.652Z,-3.80
2022-12-18T11:08:39.941Z,-3.80
2022-12-18T11:11:20.181Z,-3.80
2022-12-18T11:13:58.933Z,-3.70
2022-12-18T11:16:27.203Z,-3.80
2022-12-18T11:18:54.642Z,-3.80
2022-12-18T11:21:21.938Z,-3.80
2022-12-18T11:23:53.214Z,-3.80
2022-12-18T11:26:32.112Z,-3.80
2022-12-18T11:29:10.316Z,-3.70
2022-12-18T11:31:37.707Z,-3.60
2022-12-18T11:37:01.689Z,-3.60
2022-12-18T11:39:35.028Z,-3.70
2022-12-18T11:42:10.738Z,-3.60
2022-12-18T11:44:45.647Z,-3.60
2022-12-18T11:47:22.621Z,-3.60
2022-12-18T11:49:51.283Z,-3.60
2022-12-18T11:52:22.212Z,-3.60
2022-12-18T11:54:52.721Z,-3.60
2022-12-18T11:57:35.014Z,-3.60
2022-12-18T12:00:08.477Z,-3.50
2022-12-18T12:03:16.062Z,-3.60
2022-12-18T12:05:57.209Z,-3.60
2022-12-18T12:08:34.413Z,-3.60
2022-12-18T12:11:08.734Z,-3.60
2022-12-18T12:13:48.852Z,-3.50
2022-12-18T12:16:21.072Z,-3.50
2022-12-18T12:19:01.627Z,-3.50
2022-12-18T12:21:37.439Z,-3.40
2022-12-18T12:24:19.939Z,-3.40
2022-12-18T12:26:54.836Z,-3.30
2022-12-18T12:29:32.765Z,-3.30
2022-12-18T12:32:17.944Z,-3.30
2022-12-18T12:34:57.879Z,-3.30
2022-12-18T12:37:39.644Z,-3.30
2022-12-18T12:40:26.795Z,-3.30
2022-12-18T12:43:14.494Z,-3.30
2022-12-18T12:45:49.242Z,-3.30
2022-12-18T12:48:22.904Z,-3.30
2022-12-18T12:50:50.853Z,-3.20
2022-12-18T12:53:26.285Z,-3.20
2022-12-18T12:55:55.582Z,-3.10
2022-12-18T12:58:33.143Z,-3.10
2022-12-18T13:01:09.691Z,-3.20
2022-12-18T13:03:46.454Z,-3.20
2022-12-18T13:06:20.401Z,-3.10
2022-12-18T13:08:57.184Z,-3.10
2022-12-18T13:11:59.483Z,-3.10
2022-12-18T13:14:33.037Z,-3.10
2022-12-18T13:17:30.943Z,-3.10
2022-12-18T13:20:07.957Z,-3.10
2022-12-18T13:22:38.467Z,-3.10
2022-12-18T13:25:37.280Z,-3.20
2022-12-18T13:28:13.702Z,-3.10
2022-12-18T13:30:59.900Z,-3.10
2022-12-18T13:34:16.492Z,-3.10
2022-12-18T13:36:33.861Z,-3.20
2022-12-18T13:39:36.079Z,-3.20
2022-12-18T13:42:58.341Z,-3.20
2022-12-18T13:45:47.640Z,-3.20
2022-12-18T13:48:21.756Z,-3.30
2022-12-18T13:51:02.841Z,-3.30
2022-12-18T13:53:43.301Z,-3.30
2022-12-18T13:56:19.602Z,-3.30
2022-12-18T13:59:14.434Z,-3.30
2022-12-18T14:01:47.772Z,-3.30
2022-12-18T14:04:21.882Z,-3.30
2022-12-18T14:06:53.993Z,-3.40
2022-12-18T14:09:26.207Z,-3.30
2022-12-18T14:12:16.397Z,-3.30
2022-12-18T14:14:45.505Z,-3.30
2022-12-18T14:17:14.835Z,-3.20
2022-12-18T14:19:45.239Z,-3.20
2022-12-18T14:22:19.453Z,-3.20
2022-12-18T14:24:47.559Z,-3.20
2022-12-18T14:27:23.533Z,-3.20
2022-12-18T14:29:50.822Z,-3.20
2022-12-18T14:32:19.542Z,-3.20
2022-12-18T14:34:48.748Z,-3.30
2022-12-18T14:37:20.878Z,-3.20
2022-12-18T14:39:59.325Z,-3.20
2022-12-18T14:42:29.134Z,-3.20
2022-12-18T14:45:41.721Z,-3.20
2022-12-18T14:48:16.273Z,-3.30
2022-12-18T14:50:57.154Z,-3.30
2022-12-18T14:53:34.947Z,-3.30
2022-12-18T14:56:03.270Z,-3.40
2022-12-18T14:58:30.900Z,-3.50
2022-12-18T15:00:58.448Z,-3.60
2022-12-18T15:03:26.306Z,-3.60
2022-12-18T15:05:54.492Z,-3.80
2022-12-18T15:08:37.554Z,-3.70
2022-12-18T15:11:20.009Z,-3.80
2022-12-18T15:13:47.252Z,-3.80
2022-12-18T15:16:14.548Z,-3.80
2022-12-18T15:18:46.117Z,-3.80
2022-12-18T15:21:19.377Z,-3.70
2022-12-18T15:23:51.016Z,-3.70
2022-12-18T15:26:20.197Z,-3.70
2022-12-18T15:28:48.987Z,-3.70
2022-12-18T15:31:31.090Z,-3.70
2022-12-18T15:34:11.587Z,-3.60
2022-12-18T15:36:39.109Z,-3.60
2022-12-18T15:39:07.730Z,-3.60
2022-12-18T15:41:36.799Z,-3.60
2022-12-18T15:44:20.517Z,-3.60
2022-12-18T15:46:47.864Z,-3.60
2022-12-18T15:49:15.140Z,-3.60
2022-12-18T15:51:42.610Z,-3.60
2022-12-18T15:54:17.001Z,-3.60
2022-12-18T15:57:03.102Z,-3.60
2022-12-18T15:59:30.492Z,-3.60
2022-12-18T16:01:58.256Z,-3.60
2022-12-18T16:04:26.211Z,-3.70
2022-12-18T16:09:42.851Z,-3.80
2022-12-18T16:12:17.007Z,-3.80
2022-12-18T16:14:44.291Z,-3.80
2022-12-18T16:17:13.499Z,-3.90
2022-12-18T16:19:41.039Z,-3.80
2022-12-18T16:22:21.154Z,-3.70
2022-12-18T16:24:50.559Z,-3.60
2022-12-18T16:27:18.194Z,-3.70
2022-12-18T16:29:45.883Z,-3.60
2022-12-18T16:32:15.033Z,-3.60
2022-12-18T16:34:43.146Z,-3.60
2022-12-18T16:37:17.871Z,-3.60
2022-12-18T16:39:45.540Z,-3.60
2022-12-18T16:42:17.820Z,-3.60
2022-12-18T16:44:45.882Z,-3.70
2022-12-18T16:47:14.359Z,-3.60
2022-12-18T16:49:42.493Z,-3.60
2022-12-18T16:52:09.826Z,-3.60
2022-12-18T16:54:37.176Z,-3.70
2022-12-18T16:57:07.792Z,-3.80
2022-12-18T16:59:36.475Z,-3.80
2022-12-18T17:02:03.842Z,-3.80
2022-12-18T17:04:31.308Z,-3.70
2022-12-18T17:06:58.696Z,-3.70
2022-12-18T17:09:26.041Z,-3.70
2022-12-18T17:11:54.151Z,-3.70
2022-12-18T17:14:23.307Z,-3.70
2022-12-18T17:17:19.176Z,-3.70
2022-12-18T17:19:39.269Z,-3.70
2022-12-18T17:22:08.044Z,-3.70
2022-12-18T17:24:35.797Z,-3.70
2022-12-18T17:27:03.848Z,-3.70
2022-12-18T17:29:31.202Z,-3.70
2022-12-18T17:32:00.437Z,-3.70
2022-12-18T17:34:27.980Z,-3.80
2022-12-18T17:36:55.560Z,-3.80
2022-12-18T17:39:22.808Z,-3.80
2022-12-18T17:41:50.607Z,-3.90
2022-12-18T17:44:18.574Z,-3.80
2022-12-18T17:46:46.184Z,-3.90
2022-12-18T17:49:15.018Z,-3.90
2022-12-18T17:51:42.996Z,-3.90
2022-12-18T17:54:10.947Z,-3.90
2022-12-18T17:56:39.134Z,-3.90
2022-12-18T17:59:07.140Z,-3.90
2022-12-18T18:01:37.368Z,-3.90
2022-12-18T18:04:08.388Z,-3.90
2022-12-18T18:06:38.902Z,-4.00
2022-12-18T18:09:08.624Z,-4.00
2022-12-18T18:12:03.045Z,-4.00
2022-12-18T18:14:30.574Z,-4.00
2022-12-18T18:16:59.841Z,-4.00
2022-12-18T18:19:32.966Z,-4.00
2022-12-18T18:22:02.115Z,-4.10
2022-12-18T18:24:30.783Z,-4.10
2022-12-18T18:26:59.938Z,-4.20
2022-12-18T18:29:30.246Z,-4.20
2022-12-18T18:31:58.572Z,-4.20
2022-12-18T18:34:28.540Z,-4.20
2022-12-18T18:36:56.153Z,-4.20
2022-12-18T18:39:28.228Z,-4.20
2022-12-18T18:41:55.772Z,-4.20
2022-12-18T18:44:25.963Z,-4.20
2022-12-18T18:46:54.844Z,-4.20
2022-12-18T18:49:24.200Z,-4.20
2022-12-18T18:51:51.531Z,-4.20
2022-12-18T18:54:18.970Z,-4.30
2022-12-18T18:57:19.282Z,-4.30
2022-12-18T18:59:36.463Z,-4.30
2022-12-18T19:02:04.794Z,-4.40
2022-12-18T19:04:33.299Z,-4.40
2022-12-18T19:07:01.139Z,-4.40
2022-12-18T19:09:28.750Z,-4.40
2022-12-18T19:12:16.703Z,-4.40
2022-12-18T19:14:44.619Z,-4.40
2022-12-18T19:17:11.928Z,-4.50
2022-12-18T19:19:39.518Z,-4.40
2022-12-18T19:22:07.266Z,-4.40
2022-12-18T19:24:35.478Z,-4.40
2022-12-18T19:27:04.709Z,-4.40
2022-12-18T19:29:32.008Z,-4.50
2022-12-18T19:31:59.514Z,-4.50
2022-12-18T19:34:27.478Z,-4.50
2022-12-18T19:36:59.750Z,-4.50
2022-12-18T19:39:27.747Z,-4.50
2022-12-18T19:41:55.013Z,-4.50
2022-12-18T19:44:23.626Z,-4.50
2022-12-18T19:46:51.579Z,-4.50
2022-12-18T19:49:18.898Z,-4.50
2022-12-18T19:51:50.231Z,-4.50
2022-12-18T19:54:18.154Z,-4.50
2022-12-18T19:56:45.869Z,-4.50
2022-12-18T19:59:13.557Z,-4.50
2022-12-18T20:01:42.459Z,-4.50
2022-12-18T20:04:09.921Z,-4.50
2022-12-18T20:06:47.543Z,-4.50
2022-12-18T20:09:15.486Z,-4.50
2022-12-18T20:11:42.942Z,-4.50
2022-12-18T20:14:10.798Z,-4.50
2022-12-18T20:16:38.498Z,-4.50
2022-12-18T20:19:09.614Z,-4.40
2022-12-18T20:21:37.084Z,-4.50
2022-12-18T20:24:05.026Z,-4.50
2022-12-18T20:26:32.437Z,-4.50
2022-12-18T20:28:59.934Z,-4.60
2022-12-18T20:31:27.254Z,-4.60
2022-12-18T20:34:02.679Z,-4.50
2022-12-18T20:36:34.145Z,-4.50
2022-12-18T20:39:04.021Z,-4.50
2022-12-18T20:41:38.099Z,-4.60
2022-12-18T20:44:21.568Z,-4.50
2022-12-18T20:46:50.494Z,-4.50
2022-12-18T20:49:18.041Z,-4.60
2022-12-18T20:51:50.700Z,-4.50
2022-12-18T20:54:19.297Z,-4.60
2022-12-18T20:56:46.757Z,-4.60
2022-12-18T20:59:14.417Z,-4.50
2022-12-18T21:01:48.509Z,-4.50
2022-12-18T21:04:18.449Z,-4.60
2022-12-18T21:06:52.053Z,-4.50
2022-12-18T21:09:21.840Z,-4.50
2022-12-18T21:12:08.245Z,-4.60
2022-12-18T21:14:37.818Z,-4.60
2022-12-18T21:17:05.798Z,-4.50
2022-12-18T21:19:33.165Z,-4.50
2022-12-18T21:22:03.213Z,-4.50
2022-12-18T21:24:32.733Z,-4.60
2022-12-18T21:27:00.481Z,-4.50
2022-12-18T21:29:27.965Z,-4.50
2022-12-18T21:31:55.457Z,-4.50
2022-12-18T21:34:27.489Z,-4.50
2022-12-18T21:36:56.117Z,-4.50
2022-12-18T21:39:25.827Z,-4.50
2022-12-18T21:42:11.954Z,-4.40
2022-12-18T21:44:42.163Z,-4.50
2022-12-18T21:47:21.379Z,-4.50
2022-12-18T21:49:51.516Z,-4.50
2022-12-18T21:52:19.561Z,-4.50
2022-12-18T21:54:50.295Z,-4.40
2022-12-18T21:57:18.652Z,-4.40
2022-12-18T21:59:46.104Z,-4.30
2022-12-18T22:02:16.134Z,-4.30
2022-12-18T22:04:45.989Z,-4.30
2022-12-18T22:07:14.895Z,-4.30
2022-12-18T22:09:42.332Z,-4.30
2022-12-18T22:12:13.549Z,-4.30
2022-12-18T22:14:40.833Z,-4.30
2022-12-18T22:17:09.722Z,-4.30
2022-12-18T22:19:42.815Z,-4.30
2022-12-18T22:22:10.657Z,-4.30
2022-12-18T22:24:37.962Z,-4.30
2022-12-18T22:27:05.247Z,-4.40
2022-12-18T22:29:52.601Z,-4.40
2022-12-18T22:32:30.519Z,-4.40
2022-12-18T22:35:04.523Z,-4.30
2022-12-18T22:37:34.491Z,-4.40
2022-12-18T22:40:03.168Z,-4.40
2022-12-18T22:42:31.052Z,-4.40
2022-12-18T22:45:00.382Z,-4.40
2022-12-18T22:47:29.976Z,-4.40
2022-12-18T22:49:58.024Z,-4.40
2022-12-18T22:52:25.765Z,-4.40
2022-12-18T22:54:53.958Z,-4.40
2022-12-18T22:57:22.166Z,-4.40
2022-12-18T22:59:49.528Z,-4.30
2022-12-18T23:02:19.044Z,-4.40
2022-12-18T23:04:47.492Z,-4.30
2022-12-18T23:07:15.265Z,-4.40
2022-12-18T23:09:42.732Z,-4.40
2022-12-18T23:12:15.320Z,-4.40
2022-12-18T23:14:47.260Z,-4.40
2022-12-18T23:17:14.669Z,-4.30
2022-12-18T23:19:48.762Z,-4.30
2022-12-18T23:22:16.586Z,-4.30
2022-12-18T23:24:44.161Z,-4.30
2022-12-18T23:27:12.168Z,-4.30
2022-12-18T23:29:40.151Z,-4.40
2022-12-18T23:32:07.985Z,-4.30
2022-12-18T23:34:35.310Z,-4.30
2022-12-18T23:37:04.049Z,-4.40
2022-12-18T23:39:31.426Z,-4.30
2022-12-18T23:41:58.793Z,-4.40
2022-12-18T23:44:26.293Z,-4.40
2022-12-18T23:46:53.744Z,-4.40
2022-12-18T23:49:21.063Z,-4.40
2022-12-18T23:51:49.011Z,-4.40
2022-12-18T23:54:17.686Z,-4.40
2022-12-18T23:56:50.048Z,-4.40
2022-12-18T23:59:20.293Z,-4.40
